ilmateenistus.ee keskkonnaagentuur.ee
EETN Tallinn
FTEO31 EETN 212300
TAF EETN 212323Z 2200/2224 23018G30KT 9999 BKN015 TEMPO 2200/2205
    26025G45KT 3000 SHRA BKN007 BKN015CB TEMPO 2209/2215 27025G35KT BECMG
    2218/2220 23012KT TEMPO 2221/2224 4000 RA BKN010 OVC018=

METAR EETN 220250Z 25021G31KT 9999 FEW015CB BKN018 07/05 Q0973=
Tallinn
EEKA Kärdla
FCEO32 EETN 220300
TAF EEKA 220300Z 2204/2210 26018G28KT 9999 SCT025=

METAR EEKA 220250Z 26012G24KT 210V330 9999 BKN037 07/01 Q0976=
Kärdla
EEKE Kuressaare
FCEO32 EETN 220300
TAF EEKE 220300Z 2204/2210 27017G30KT 9999 SCT030 PROB40 TEMPO
    2204/2210 SCT015CB BKN020=

METAR EEKE 220250Z AUTO 27013G25KT 220V300 9999NDV FEW035 08/02 Q0980=
Kuressaare
EEPU Pärnu
METAR EEPU 220250Z NIL=
Pärnu
EETU Tartu
METAR EETU 220250Z AUTO 23019G32KT 200V260 9999 BKN036/// OVC047/// 08/02 Q0979=
Tartu
EEEI Ämari
METAR EEEI 220250Z AUTO 25020G32KT 9999 FEW031/// BKN130/// OVC160/// 07/04 Q0974=
Ämari